createdAt,value
2022-10-29T00:00:15.681Z,20.88
2022-10-29T00:02:42.235Z,22.27
2022-10-29T00:05:08.859Z,23.08
2022-10-29T00:07:35.305Z,24.73
2022-10-29T00:10:01.838Z,21.98
2022-10-29T00:12:28.338Z,25.00
2022-10-29T00:14:54.731Z,21.02
2022-10-29T00:17:21.181Z,18.83
2022-10-29T00:19:47.692Z,21.73
2022-10-29T00:22:14.108Z,23.13
2022-10-29T00:24:40.546Z,21.88
2022-10-29T00:27:06.973Z,27.13
2022-10-29T00:29:33.500Z,23.52
2022-10-29T00:32:00.000Z,25.23
2022-10-29T00:34:26.431Z,25.45
2022-10-29T00:36:52.848Z,21.63
2022-10-29T00:39:19.381Z,23.95
2022-10-29T00:41:45.791Z,25.10
2022-10-29T00:44:32.533Z,27.00
2022-10-29T00:47:03.570Z,26.40
2022-10-29T00:49:31.062Z,24.42
2022-10-29T00:51:57.490Z,22.10
2022-10-29T00:54:23.913Z,22.15
2022-10-29T00:56:54.562Z,23.05
2022-10-29T00:59:21.080Z,22.52
2022-10-29T01:01:47.770Z,22.63
2022-10-29T01:04:14.332Z,23.23
2022-10-29T01:06:42.323Z,25.10
2022-10-29T01:09:08.727Z,22.38
2022-10-29T01:11:44.542Z,26.27
2022-10-29T01:14:10.969Z,25.75
2022-10-29T01:16:43.995Z,21.77
2022-10-29T01:19:22.729Z,20.52
2022-10-29T01:21:52.638Z,23.35
2022-10-29T01:24:22.137Z,22.95
2022-10-29T01:26:48.548Z,22.17
2022-10-29T01:29:21.907Z,20.77
2022-10-29T01:32:00.554Z,20.65
2022-10-29T01:34:41.145Z,28.35
2022-10-29T01:37:14.054Z,24.80
2022-10-29T01:39:52.140Z,20.35
2022-10-29T01:42:33.157Z,21.15
2022-10-29T01:45:05.786Z,21.15
2022-10-29T01:47:32.893Z,20.90
2022-10-29T01:50:00.295Z,18.85
2022-10-29T01:52:26.931Z,20.92
2022-10-29T01:54:53.373Z,18.48
2022-10-29T01:57:28.465Z,19.10
2022-10-29T01:59:56.431Z,21.02
2022-10-29T02:02:28.348Z,18.13
2022-10-29T02:04:55.213Z,16.48
2022-10-29T02:07:21.631Z,15.18
2022-10-29T02:09:51.408Z,16.00
2022-10-29T02:12:20.951Z,12.60
2022-10-29T02:14:52.017Z,14.60
2022-10-29T02:17:18.466Z,11.30
2022-10-29T02:19:44.930Z,11.43
2022-10-29T02:22:11.341Z,10.32
2022-10-29T02:24:37.804Z,10.13
2022-10-29T02:27:04.213Z,9.00
2022-10-29T02:29:30.674Z,12.63
2022-10-29T02:31:57.377Z,10.05
2022-10-29T02:34:23.853Z,9.10
2022-10-29T02:36:50.296Z,13.70
2022-10-29T02:39:16.759Z,10.43
2022-10-29T02:41:43.163Z,11.07
2022-10-29T02:44:09.614Z,11.30
2022-10-29T02:46:39.678Z,13.40
2022-10-29T02:49:06.785Z,12.48
2022-10-29T02:51:33.244Z,10.50
2022-10-29T02:53:59.764Z,13.80
2022-10-29T02:56:26.188Z,15.02
2022-10-29T02:58:52.656Z,16.13
2022-10-29T03:01:19.198Z,15.13
2022-10-29T03:03:45.759Z,14.13
2022-10-29T03:06:12.941Z,14.95
2022-10-29T03:08:39.414Z,13.43
2022-10-29T03:11:05.840Z,14.15
2022-10-29T03:13:32.352Z,14.40
2022-10-29T03:15:58.812Z,14.27
2022-10-29T03:18:25.206Z,16.65
2022-10-29T03:20:51.684Z,15.55
2022-10-29T03:23:18.069Z,13.77
2022-10-29T03:25:44.528Z,14.43
2022-10-29T03:28:10.964Z,13.32
2022-10-29T03:30:37.384Z,14.50
2022-10-29T03:33:03.868Z,12.93
2022-10-29T03:35:30.367Z,10.80
2022-10-29T03:37:56.958Z,11.35
2022-10-29T03:40:23.478Z,10.73
2022-10-29T03:42:49.914Z,9.52
2022-10-29T03:45:16.367Z,8.68
2022-10-29T03:47:42.812Z,9.45
2022-10-29T03:50:09.326Z,6.70
2022-10-29T03:52:35.858Z,8.43
2022-10-29T03:55:02.254Z,7.07
2022-10-29T03:57:28.712Z,6.38
2022-10-29T03:59:56.130Z,9.48
2022-10-29T04:02:22.892Z,8.88
2022-10-29T04:04:49.387Z,9.27
2022-10-29T04:07:15.852Z,6.32
2022-10-29T04:09:42.295Z,10.40
2022-10-29T04:12:08.866Z,10.87
2022-10-29T04:14:35.371Z,9.27
2022-10-29T04:17:01.892Z,10.38
2022-10-29T04:19:28.323Z,7.28
2022-10-29T04:32:40.633Z,11.70
2022-10-29T04:35:07.483Z,9.00
2022-10-29T04:37:33.922Z,10.07
2022-10-29T04:40:00.363Z,10.80
2022-10-29T04:42:26.858Z,14.55
2022-10-29T04:44:53.260Z,12.50
2022-10-29T04:47:19.783Z,14.57
2022-10-29T04:49:46.271Z,14.50
2022-10-29T04:52:12.696Z,12.48
2022-10-29T04:54:39.085Z,12.18
2022-10-29T04:57:05.482Z,13.70
2022-10-29T04:59:32.060Z,13.57
2022-10-29T05:02:01.483Z,13.45
2022-10-29T05:04:29.551Z,16.93
2022-10-29T05:06:56.094Z,16.25
2022-10-29T05:09:22.557Z,14.90
2022-10-29T05:11:49.182Z,12.68
2022-10-29T05:14:15.861Z,14.27
2022-10-29T05:16:42.528Z,19.67
2022-10-29T05:19:09.016Z,15.80
2022-10-29T05:21:35.477Z,16.05
2022-10-29T05:24:01.977Z,18.02
2022-10-29T05:26:30.214Z,16.85
2022-10-29T05:28:56.654Z,17.08
2022-10-29T05:31:23.044Z,14.95
2022-10-29T05:33:51.203Z,15.38
2022-10-29T05:36:20.840Z,17.50
2022-10-29T05:38:47.859Z,16.52
2022-10-29T05:41:14.302Z,18.77
2022-10-29T05:43:40.730Z,18.02
2022-10-29T05:46:07.180Z,16.17
2022-10-29T05:48:33.609Z,15.05
2022-10-29T05:51:00.166Z,16.92
2022-10-29T05:53:27.044Z,17.98
2022-10-29T05:55:54.167Z,18.08
2022-10-29T05:58:20.718Z,20.15
2022-10-29T06:00:47.215Z,22.60
2022-10-29T06:03:14.992Z,19.75
2022-10-29T06:05:41.973Z,20.90
2022-10-29T06:08:08.600Z,21.17
2022-10-29T06:10:35.048Z,19.23
2022-10-29T06:13:01.666Z,18.20
2022-10-29T06:15:28.256Z,19.77
2022-10-29T06:17:54.967Z,16.98
2022-10-29T06:20:21.846Z,13.27
2022-10-29T06:22:48.419Z,14.30
2022-10-29T06:25:15.169Z,15.52
2022-10-29T06:27:41.631Z,13.02
2022-10-29T06:30:08.456Z,13.60
2022-10-29T06:32:34.879Z,15.13
2022-10-29T06:35:01.316Z,14.82
2022-10-29T06:37:29.714Z,13.65
2022-10-29T06:39:56.139Z,15.02
2022-10-29T06:42:23.810Z,12.30
2022-10-29T06:44:50.230Z,10.43
2022-10-29T06:47:16.694Z,12.25
2022-10-29T06:49:43.144Z,14.75
2022-10-29T06:52:09.572Z,10.90
2022-10-29T06:54:36.138Z,12.98
2022-10-29T06:57:02.559Z,12.40
2022-10-29T06:59:28.996Z,12.73
2022-10-29T07:01:55.492Z,12.93
2022-10-29T07:04:22.434Z,12.23
2022-10-29T07:06:48.875Z,9.82
2022-10-29T07:09:15.405Z,11.57
2022-10-29T07:11:41.859Z,10.65
2022-10-29T07:14:09.953Z,10.40
2022-10-29T07:16:36.847Z,10.95
2022-10-29T07:19:03.766Z,10.40
2022-10-29T07:21:30.200Z,15.15
2022-10-29T07:23:58.746Z,13.40
2022-10-29T07:26:25.197Z,12.35
2022-10-29T07:28:54.527Z,14.55
2022-10-29T07:31:20.963Z,12.63
2022-10-29T07:33:47.403Z,11.70
2022-10-29T07:36:13.930Z,16.27
2022-10-29T07:38:40.449Z,13.77
2022-10-29T07:41:06.914Z,15.40
2022-10-29T07:43:33.337Z,14.43
2022-10-29T07:45:59.772Z,16.10
2022-10-29T07:48:26.169Z,14.13
2022-10-29T07:50:52.675Z,14.13
2022-10-29T07:53:19.096Z,15.55
2022-10-29T07:55:51.615Z,15.85
2022-10-29T07:58:18.039Z,14.30
2022-10-29T08:00:44.581Z,15.13
2022-10-29T08:03:11.705Z,15.20
2022-10-29T08:05:38.160Z,16.55
2022-10-29T08:08:05.716Z,15.60
2022-10-29T08:10:32.604Z,14.07
2022-10-29T08:13:00.132Z,15.02
2022-10-29T08:15:27.413Z,14.38
2022-10-29T08:17:53.887Z,14.88
2022-10-29T08:20:20.512Z,17.13
2022-10-29T08:22:47.028Z,13.73
2022-10-29T08:25:13.625Z,14.85
2022-10-29T08:27:40.125Z,18.92
2022-10-29T08:30:07.753Z,20.90
2022-10-29T08:32:34.235Z,14.50
2022-10-29T08:35:00.718Z,17.05
2022-10-29T08:37:27.604Z,15.07
2022-10-29T08:39:54.047Z,13.65
2022-10-29T08:42:20.431Z,16.50
2022-10-29T08:44:46.828Z,11.98
2022-10-29T08:47:20.825Z,11.73
2022-10-29T08:50:02.149Z,14.70
2022-10-29T08:52:29.039Z,13.82
2022-10-29T08:55:14.757Z,13.90
2022-10-29T08:57:42.731Z,13.45
2022-10-29T09:00:16.840Z,11.73
2022-10-29T09:02:43.339Z,15.05
2022-10-29T09:05:16.079Z,12.32
2022-10-29T09:07:45.557Z,8.88
2022-10-29T09:10:19.146Z,12.32
2022-10-29T09:12:48.707Z,9.57
2022-10-29T09:15:21.235Z,16.00
2022-10-29T09:17:54.296Z,9.73
2022-10-29T09:20:30.803Z,11.25
2022-10-29T09:23:11.943Z,12.35
2022-10-29T09:26:04.950Z,13.18
2022-10-29T09:28:50.361Z,10.40
2022-10-29T09:31:16.801Z,9.80
2022-10-29T09:34:06.434Z,10.07
2022-10-29T09:36:33.263Z,10.45
2022-10-29T09:39:02.541Z,11.25
2022-10-29T09:41:32.924Z,8.80
2022-10-29T09:44:02.433Z,9.45
2022-10-29T09:46:35.353Z,9.50
2022-10-29T09:49:15.304Z,9.55
2022-10-29T09:51:43.424Z,9.27
2022-10-29T09:54:09.977Z,8.15
2022-10-29T09:56:38.335Z,6.25
2022-10-29T09:59:23.515Z,11.18
2022-10-29T10:01:50.031Z,8.48
2022-10-29T10:04:21.989Z,8.32
2022-10-29T10:07:01.880Z,6.13
2022-10-29T10:09:28.378Z,7.55
2022-10-29T10:11:59.041Z,7.82
2022-10-29T10:14:26.599Z,6.53
2022-10-29T10:16:59.808Z,10.20
2022-10-29T10:19:27.128Z,6.93
2022-10-29T10:21:57.906Z,7.35
2022-10-29T10:24:31.756Z,6.55
2022-10-29T10:26:58.233Z,8.75
2022-10-29T10:29:25.210Z,7.68
2022-10-29T10:31:57.624Z,10.52
2022-10-29T10:34:25.802Z,9.90
2022-10-29T10:36:52.299Z,12.57
2022-10-29T10:39:24.963Z,12.27
2022-10-29T10:41:51.798Z,10.57
2022-10-29T10:44:18.467Z,8.10
2022-10-29T10:46:44.903Z,7.20
2022-10-29T10:49:11.294Z,7.18
2022-10-29T10:51:43.132Z,6.80
2022-10-29T10:54:28.497Z,7.65
2022-10-29T10:56:58.833Z,6.68
2022-10-29T10:59:26.917Z,8.50
2022-10-29T11:01:53.483Z,8.43
2022-10-29T11:04:30.849Z,12.93
2022-10-29T11:06:58.600Z,8.05
2022-10-29T11:09:35.656Z,7.78
2022-10-29T11:12:07.778Z,11.30
2022-10-29T11:14:36.747Z,10.63
2022-10-29T11:17:03.552Z,9.43
2022-10-29T11:19:38.534Z,7.15
2022-10-29T11:22:18.065Z,8.23
2022-10-29T11:24:44.520Z,6.43
2022-10-29T11:27:29.850Z,6.93
2022-10-29T11:30:03.028Z,8.77
2022-10-29T11:32:48.421Z,7.43
2022-10-29T11:35:14.826Z,7.18
2022-10-29T11:37:53.316Z,9.30
2022-10-29T11:40:22.101Z,7.38
2022-10-29T11:42:48.521Z,8.50
2022-10-29T11:45:17.132Z,6.28
2022-10-29T11:47:46.782Z,5.97
2022-10-29T11:50:20.236Z,7.63
2022-10-29T11:52:48.271Z,8.57
2022-10-29T11:55:27.080Z,6.47
2022-10-29T11:58:03.991Z,7.15
2022-10-29T12:00:44.201Z,7.57
2022-10-29T12:03:10.630Z,6.28
2022-10-29T12:05:40.375Z,8.90
2022-10-29T12:08:06.761Z,6.13
2022-10-29T12:10:37.343Z,9.93
2022-10-29T12:13:14.329Z,5.05
2022-10-29T12:15:42.773Z,5.53
2022-10-29T12:18:18.724Z,6.80
2022-10-29T12:20:45.687Z,7.30
2022-10-29T12:23:31.061Z,5.63
2022-10-29T12:26:06.679Z,9.90
2022-10-29T12:28:33.098Z,6.43
2022-10-29T12:30:59.562Z,6.75
2022-10-29T12:33:49.312Z,10.43
2022-10-29T12:36:15.803Z,9.93
2022-10-29T12:38:42.823Z,5.28
2022-10-29T12:41:35.860Z,5.80
2022-10-29T12:44:25.689Z,5.72
2022-10-29T12:46:52.183Z,6.53
2022-10-29T12:49:37.386Z,8.00
2022-10-29T12:52:11.847Z,7.30
2022-10-29T12:54:42.471Z,7.65
2022-10-29T12:57:15.022Z,5.72
2022-10-29T12:59:41.925Z,5.88
2022-10-29T13:02:18.350Z,5.63
2022-10-29T13:05:03.681Z,6.20
2022-10-29T13:07:30.155Z,8.63
2022-10-29T13:10:19.838Z,8.05
2022-10-29T13:12:58.444Z,6.90
2022-10-29T13:15:28.776Z,7.43
2022-10-29T13:17:55.532Z,8.07
2022-10-29T13:20:25.331Z,8.98
2022-10-29T13:22:56.059Z,6.40
2022-10-29T13:25:28.876Z,6.43
2022-10-29T13:27:55.423Z,8.77
2022-10-29T13:30:24.020Z,9.18
2022-10-29T13:32:50.715Z,8.95
2022-10-29T13:35:17.149Z,8.68
2022-10-29T13:37:46.720Z,10.30
2022-10-29T13:40:33.391Z,7.88
2022-10-29T13:43:10.189Z,9.70
2022-10-29T13:45:37.235Z,6.93
2022-10-29T13:48:07.477Z,7.53
2022-10-29T13:50:34.032Z,6.80
2022-10-29T13:53:00.895Z,7.25
2022-10-29T13:55:27.858Z,7.90
2022-10-29T13:57:54.526Z,9.35
2022-10-29T14:00:21.516Z,7.70
2022-10-29T14:02:51.289Z,10.50
2022-10-29T14:05:19.468Z,7.22
2022-10-29T14:07:45.935Z,8.80
2022-10-29T14:10:15.895Z,8.77
2022-10-29T14:12:42.445Z,7.93
2022-10-29T14:15:10.569Z,7.78
2022-10-29T14:17:37.086Z,8.25
2022-10-29T14:20:03.613Z,6.72
2022-10-29T14:22:33.936Z,9.50
2022-10-29T14:25:01.108Z,8.55
2022-10-29T14:27:27.707Z,7.68
2022-10-29T14:30:08.561Z,8.75
2022-10-29T14:32:36.352Z,9.55
2022-10-29T14:35:02.780Z,12.23
2022-10-29T14:37:33.207Z,10.10
2022-10-29T14:40:00.027Z,10.63
2022-10-29T14:42:33.605Z,10.82
2022-10-29T14:45:00.885Z,12.13
2022-10-29T14:47:32.260Z,8.43
2022-10-29T14:50:02.812Z,10.55
2022-10-29T14:52:30.655Z,9.77
2022-10-29T14:55:02.906Z,12.88
2022-10-29T14:57:30.084Z,11.52
2022-10-29T14:59:57.630Z,11.35
2022-10-29T15:02:37.530Z,8.73
2022-10-29T15:05:07.681Z,13.18
2022-10-29T15:07:35.491Z,11.82
2022-10-29T15:10:03.142Z,12.85
2022-10-29T15:12:34.104Z,12.50
2022-10-29T15:15:27.094Z,11.38
2022-10-29T15:17:54.894Z,11.63
2022-10-29T15:20:26.422Z,13.30
2022-10-29T15:22:53.670Z,13.52
2022-10-29T15:25:22.966Z,13.25
2022-10-29T15:27:49.491Z,12.30
2022-10-29T15:30:19.704Z,14.40
2022-10-29T15:32:46.379Z,16.48
2022-10-29T15:35:14.139Z,17.58
2022-10-29T15:37:45.903Z,13.18
2022-10-29T15:40:17.035Z,13.73
2022-10-29T15:42:45.333Z,15.43
2022-10-29T15:45:15.146Z,13.98
2022-10-29T15:47:45.441Z,12.93
2022-10-29T15:50:19.130Z,15.68
2022-10-29T15:52:47.195Z,17.27
2022-10-29T15:55:18.800Z,11.23
2022-10-29T15:57:47.316Z,12.05
2022-10-29T16:00:13.982Z,11.75
2022-10-29T16:02:40.732Z,13.98
2022-10-29T16:05:07.479Z,15.57
2022-10-29T16:07:33.996Z,17.50
2022-10-29T16:10:00.590Z,13.77
2022-10-29T16:12:27.168Z,13.68
2022-10-29T16:14:53.706Z,12.90
2022-10-29T16:17:21.331Z,15.55
2022-10-29T16:19:48.553Z,18.13
2022-10-29T16:22:16.610Z,15.57
2022-10-29T16:24:43.143Z,16.90
2022-10-29T16:27:16.972Z,19.65
2022-10-29T16:29:43.424Z,19.73
2022-10-29T16:32:13.172Z,18.00
2022-10-29T16:34:39.602Z,17.00
2022-10-29T16:37:07.020Z,15.98
2022-10-29T16:39:33.500Z,17.30
2022-10-29T16:42:00.029Z,15.35
2022-10-29T16:44:26.929Z,14.32
2022-10-29T16:46:53.418Z,15.85
2022-10-29T16:49:19.918Z,17.52
2022-10-29T16:51:46.340Z,16.58
2022-10-29T16:54:12.810Z,17.25
2022-10-29T16:56:39.283Z,14.70
2022-10-29T16:59:05.813Z,18.48
2022-10-29T17:01:32.267Z,19.75
2022-10-29T17:03:58.932Z,17.92
2022-10-29T17:06:25.458Z,16.48
2022-10-29T17:08:51.927Z,15.25
2022-10-29T17:11:18.486Z,19.63
2022-10-29T17:13:44.976Z,17.92
2022-10-29T17:16:14.825Z,18.23
2022-10-29T17:18:41.611Z,16.88
2022-10-29T17:21:08.037Z,18.45
2022-10-29T17:23:34.480Z,17.67
2022-10-29T17:26:00.945Z,16.00
2022-10-29T17:28:27.611Z,18.48
2022-10-29T17:30:54.105Z,14.35
2022-10-29T17:33:20.645Z,18.05
2022-10-29T17:35:47.073Z,19.80
2022-10-29T17:38:13.504Z,21.08
2022-10-29T17:40:39.992Z,18.08
2022-10-29T17:43:06.704Z,16.27
2022-10-29T17:45:33.250Z,17.60
2022-10-29T17:48:00.273Z,18.63
2022-10-29T17:50:27.238Z,18.65
2022-10-29T17:52:53.956Z,20.23
2022-10-29T17:55:20.503Z,18.75
2022-10-29T17:57:47.020Z,18.42
2022-10-29T18:00:13.689Z,20.65
2022-10-29T18:02:40.209Z,22.92
2022-10-29T18:05:06.787Z,21.77
2022-10-29T18:07:33.199Z,19.42
2022-10-29T18:09:59.711Z,20.13
2022-10-29T18:12:26.142Z,23.42
2022-10-29T18:14:52.596Z,23.85
2022-10-29T18:17:19.132Z,20.60
2022-10-29T18:19:45.649Z,25.83
2022-10-29T18:22:12.175Z,22.17
2022-10-29T18:24:38.679Z,21.38
2022-10-29T18:27:05.302Z,21.77
2022-10-29T18:29:31.880Z,22.63
2022-10-29T18:31:58.273Z,24.27
2022-10-29T18:34:25.016Z,23.02
2022-10-29T18:36:51.525Z,22.20
2022-10-29T18:39:17.996Z,22.58
2022-10-29T18:41:44.438Z,24.25
2022-10-29T18:44:10.869Z,19.50
2022-10-29T18:46:37.375Z,22.15
2022-10-29T18:49:03.957Z,23.73
2022-10-29T18:51:31.001Z,21.23
2022-10-29T18:54:00.413Z,22.50
2022-10-29T18:56:27.354Z,23.35
2022-10-29T18:58:55.789Z,23.27
2022-10-29T19:01:23.335Z,22.25
2022-10-29T19:03:50.676Z,23.63
2022-10-29T19:06:17.572Z,26.17
2022-10-29T19:08:44.143Z,24.50
2022-10-29T19:11:11.928Z,27.15
2022-10-29T19:13:38.417Z,23.80
2022-10-29T19:16:08.693Z,27.73
2022-10-29T19:18:35.306Z,24.90
2022-10-29T19:21:05.498Z,28.33
2022-10-29T19:23:32.070Z,28.52
2022-10-29T19:26:02.134Z,28.92
2022-10-29T19:28:29.230Z,25.38
2022-10-29T19:30:55.724Z,30.60
2022-10-29T19:33:22.233Z,28.92
2022-10-29T19:35:48.716Z,26.02
2022-10-29T19:38:16.875Z,29.00
2022-10-29T19:40:43.997Z,30.20
2022-10-29T19:43:13.793Z,35.58
2022-10-29T19:45:40.381Z,31.67
2022-10-29T19:48:08.072Z,29.17
2022-10-29T19:50:35.052Z,30.52
2022-10-29T19:53:01.625Z,28.85
2022-10-29T19:55:28.136Z,29.38
2022-10-29T19:57:54.671Z,26.17
2022-10-29T20:00:21.161Z,27.42
2022-10-29T20:02:47.612Z,27.77
2022-10-29T20:05:14.149Z,24.17
2022-10-29T20:07:40.651Z,24.40
2022-10-29T20:10:07.412Z,26.88
2022-10-29T20:12:33.896Z,26.02
2022-10-29T20:15:00.409Z,23.95
2022-10-29T20:17:26.958Z,24.73
2022-10-29T20:19:53.381Z,24.77
2022-10-29T20:22:19.833Z,24.75
2022-10-29T20:24:46.399Z,24.30
2022-10-29T20:27:12.995Z,25.38
2022-10-29T20:29:39.519Z,23.00
2022-10-29T20:32:05.932Z,31.20
2022-10-29T20:34:32.706Z,20.42
2022-10-29T20:39:30.788Z,21.88
2022-10-29T20:41:59.827Z,21.75
2022-10-29T20:44:26.529Z,23.02
2022-10-29T20:46:53.092Z,23.35
2022-10-29T20:49:19.573Z,21.80
2022-10-29T20:51:46.135Z,23.23
2022-10-29T20:54:12.591Z,22.42
2022-10-29T20:56:39.007Z,22.52
2022-10-29T20:59:05.495Z,30.45
2022-10-29T21:01:32.125Z,26.85
2022-10-29T21:03:58.760Z,32.70
2022-10-29T21:06:25.345Z,36.50
2022-10-29T21:08:52.018Z,41.15
2022-10-29T21:11:18.768Z,35.15
2022-10-29T21:13:45.441Z,41.30
2022-10-29T21:16:19.307Z,35.97
2022-10-29T21:18:46.801Z,35.78
2022-10-29T21:21:13.276Z,38.15
2022-10-29T21:23:40.131Z,34.85
2022-10-29T21:26:07.015Z,31.00
2022-10-29T21:28:33.572Z,25.40
2022-10-29T21:31:00.019Z,27.90
2022-10-29T21:33:26.513Z,27.27
2022-10-29T21:35:53.865Z,27.33
2022-10-29T21:38:20.846Z,27.75
2022-10-29T21:40:47.331Z,36.38
2022-10-29T21:43:13.968Z,39.42
2022-10-29T21:45:44.088Z,30.98
2022-10-29T21:48:10.618Z,29.63
2022-10-29T21:50:37.209Z,29.92
2022-10-29T21:53:04.022Z,30.98
2022-10-29T21:55:30.749Z,28.02
2022-10-29T21:57:57.837Z,27.13
2022-10-29T22:00:24.788Z,28.13
2022-10-29T22:02:51.417Z,23.88
2022-10-29T22:05:17.965Z,29.27
2022-10-29T22:07:44.449Z,25.92
2022-10-29T22:10:11.097Z,27.10
2022-10-29T22:12:37.515Z,28.58
2022-10-29T22:15:04.867Z,25.02
2022-10-29T22:17:31.304Z,30.73
2022-10-29T22:19:57.805Z,32.28
2022-10-29T22:22:24.292Z,28.15
2022-10-29T22:24:50.785Z,31.77
2022-10-29T22:27:17.325Z,31.98
2022-10-29T22:29:43.823Z,29.77
2022-10-29T22:32:10.241Z,35.50
2022-10-29T22:34:36.680Z,28.13
2022-10-29T22:37:03.085Z,33.33
2022-10-29T22:39:29.538Z,34.40
2022-10-29T22:41:55.997Z,32.35
2022-10-29T22:44:22.488Z,34.03
2022-10-29T22:46:49.349Z,38.70
2022-10-29T22:49:15.901Z,35.28
2022-10-29T22:51:42.385Z,31.77
2022-10-29T22:54:08.984Z,32.92
2022-10-29T22:56:35.988Z,39.80
2022-10-29T22:59:03.288Z,37.72
2022-10-29T23:01:30.701Z,35.60
2022-10-29T23:04:00.364Z,41.85
2022-10-29T23:06:27.100Z,42.45
2022-10-29T23:08:54.189Z,42.28
2022-10-29T23:11:21.773Z,38.00
2022-10-29T23:13:48.462Z,37.63
2022-10-29T23:16:14.998Z,44.53
2022-10-29T23:18:41.623Z,44.95
2022-10-29T23:21:08.070Z,43.35
2022-10-29T23:23:34.871Z,39.83
2022-10-29T23:26:02.340Z,43.97
2022-10-29T23:28:29.495Z,48.08
2022-10-29T23:30:56.093Z,45.00
2022-10-29T23:33:22.554Z,41.90
2022-10-29T23:35:49.098Z,42.30
2022-10-29T23:38:15.788Z,42.22
2022-10-29T23:40:45.617Z,43.13
2022-10-29T23:43:12.231Z,43.10
2022-10-29T23:45:39.858Z,43.85
2022-10-29T23:48:06.305Z,41.72
2022-10-29T23:50:32.733Z,46.92
2022-10-29T23:52:59.332Z,42.05
2022-10-29T23:55:26.053Z,44.97
2022-10-29T23:57:52.501Z,42.50
